Sargodha Weather



Sargodha's Current Weather

Temprature 20.749o clear sky

clear sky

Rain: 0 %

Min Temprature20.749o
Max Temprature20.749o
Humidity57
Wind Speed1.61 m/h
Sun Rise06:43:35
Sun Set18:02:06
Current Time: 23-Feb-2019 15:37:15
Lat/Lon: 32.09, 72.68




Sargodha's Geo Location




Sargodha's Weather Forecast

Time Overall Temp Min Temp Max Temp Humidity Wind Speed Rain
23-Feb-2019 (Sat)
17:00:00 clear sky 20.360 20.360 20.749 57 1.61 m/h 0 %
20:00:00 clear sky 14.990 14.990 15.284 59 3.02 m/h 0 %
23:00:00 clear sky 12.790 12.790 12.990 76 3.07 m/h 0 %
24-Feb-2019 (Sun)
02:00:00 clear sky 10.840 10.840 10.935 86 1.21 m/h 0 %
05:00:00 clear sky 9.742 9.742 9.742 85 1.01 m/h 0 %
08:00:00 clear sky 10.878 10.878 10.878 85 1.21 m/h 0 %
11:00:00 clear sky 18.824 18.824 18.824 85 1.76 m/h 0 %
14:00:00 clear sky 21.131 21.131 21.131 77 1.62 m/h 0 %
17:00:00 clear sky 20.646 20.646 20.646 60 2.05 m/h 0 %
20:00:00 light rain 16.068 16.068 16.068 67 1.86 m/h 12 %
23:00:00 light rain 12.211 12.211 12.211 85 2.21 m/h 74 %
25-Feb-2019 (Mon)
02:00:00 light rain 10.855 10.855 10.855 95 3.57 m/h 183 %
05:00:00 light rain 10.977 10.977 10.977 96 2.16 m/h 285 %
08:00:00 moderate rain 11.270 11.270 11.270 100 2.77 m/h 415 %
11:00:00 light rain 12.372 12.372 12.372 100 3.51 m/h 253 %
14:00:00 light rain 12.873 12.873 12.873 100 3.92 m/h 109 %
17:00:00 light rain 13.062 13.062 13.062 100 3.71 m/h 17 %
20:00:00 light rain 11.323 11.323 11.323 96 3.31 m/h 4 %
23:00:00 light rain 9.817 9.817 9.817 99 3.31 m/h 1 %
26-Feb-2019 (Tue)
02:00:00 light rain 9.576 9.576 9.576 98 3.56 m/h 5 %
05:00:00 light rain 9.772 9.772 9.772 99 3.41 m/h 8 %
08:00:00 light rain 10.157 10.157 10.157 99 3.42 m/h 9 %
11:00:00 light rain 12.742 12.742 12.742 100 3.07 m/h 6 %
14:00:00 scattered clouds 14.721 14.721 14.721 100 4.01 m/h 0 %
17:00:00 light rain 14.839 14.839 14.839 86 3.21 m/h 1 %
20:00:00 light rain 12.336 12.336 12.336 86 2.07 m/h 2 %
23:00:00 light rain 11.373 11.373 11.373 89 1.27 m/h 3 %
27-Feb-2019 (Wed)
02:00:00 clear sky 10.006 10.006 10.006 91 1.21 m/h 0 %
05:00:00 clear sky 7.544 7.544 7.544 89 1.3 m/h 0 %
08:00:00 clear sky 8.815 8.815 8.815 89 0.87 m/h 0 %
11:00:00 light rain 15.370 15.370 15.370 100 2.21 m/h 2 %
14:00:00 clear sky 17.086 17.086 17.086 90 2.75 m/h 0 %
17:00:00 clear sky 16.723 16.723 16.723 70 3.11 m/h 0 %
20:00:00 scattered clouds 13.442 13.442 13.442 74 4.07 m/h 0 %
23:00:00 broken clouds 11.391 11.391 11.391 85 4.12 m/h 0 %
28-Feb-2019 (Thu)
02:00:00 overcast clouds 10.291 10.291 10.291 93 2.56 m/h 0 %
05:00:00 broken clouds 9.713 9.713 9.713 92 2.41 m/h 0 %
08:00:00 broken clouds 10.165 10.165 10.165 87 3.46 m/h 0 %
11:00:00 light rain 12.622 12.622 12.622 89 2.86 m/h 39 %
14:00:00 light rain 14.629 14.629 14.629 87 3.02 m/h 19 %

Famous Cities (60)